createdAt,value
2019-02-10T00:00:30.051Z,9.90
2019-02-10T00:03:00.043Z,9.90
2019-02-10T00:05:30.051Z,9.90
2019-02-10T00:08:00.053Z,9.90
2019-02-10T00:10:30.082Z,9.90
2019-02-10T00:13:38.092Z,9.90
2019-02-10T00:16:16.514Z,9.90
2019-02-10T00:18:46.513Z,9.80
2019-02-10T00:21:16.537Z,9.80
2019-02-10T00:23:46.642Z,9.80
2019-02-10T00:26:16.655Z,9.80
2019-02-10T00:28:46.977Z,9.80
2019-02-10T00:31:17.013Z,9.80
2019-02-10T00:33:47.031Z,9.80
2019-02-10T00:36:17.487Z,9.80
2019-02-10T00:38:47.487Z,9.80
2019-02-10T00:41:17.957Z,9.80
2019-02-10T00:43:47.956Z,9.80
2019-02-10T00:46:18.304Z,9.80
2019-02-10T00:48:48.293Z,9.80
2019-02-10T00:51:18.335Z,9.80
2019-02-10T00:53:48.361Z,9.80
2019-02-10T00:56:18.381Z,9.80
2019-02-10T00:58:48.365Z,9.80
2019-02-10T01:01:18.432Z,9.80
2019-02-10T01:03:48.544Z,9.80
2019-02-10T01:06:18.589Z,9.70
2019-02-10T01:08:48.577Z,9.70
2019-02-10T01:11:18.892Z,9.80
2019-02-10T01:13:49.286Z,9.70
2019-02-10T01:16:19.307Z,9.70
2019-02-10T01:19:06.172Z,9.70
2019-02-10T01:21:36.418Z,9.70
2019-02-10T01:24:07.473Z,9.70
2019-02-10T01:26:37.572Z,9.70
2019-02-10T01:29:08.911Z,9.60
2019-02-10T01:31:39.395Z,9.60
2019-02-10T01:34:09.379Z,9.60
2019-02-10T01:36:40.059Z,9.60
2019-02-10T01:39:19.171Z,9.60
2019-02-10T01:41:49.166Z,9.60
2019-02-10T01:44:19.155Z,9.50
2019-02-10T01:46:49.547Z,9.50
2019-02-10T01:49:19.560Z,9.50
2019-02-10T01:51:49.651Z,9.50
2019-02-10T01:54:19.646Z,9.50
2019-02-10T01:56:49.719Z,9.40
2019-02-10T01:59:20.068Z,9.40
2019-02-10T02:01:50.077Z,9.40
2019-02-10T02:04:20.171Z,9.40
2019-02-10T02:06:57.687Z,9.40
2019-02-10T02:09:24.825Z,9.40
2019-02-10T02:11:55.220Z,9.40
2019-02-10T02:14:25.232Z,9.30
2019-02-10T02:16:55.306Z,9.40
2019-02-10T02:19:25.296Z,9.30
2019-02-10T02:21:55.300Z,9.40
2019-02-10T02:24:25.292Z,9.40
2019-02-10T02:26:55.630Z,9.30
2019-02-10T02:29:25.634Z,9.30
2019-02-10T02:31:55.665Z,9.30
2019-02-10T02:34:26.104Z,9.30
2019-02-10T02:36:56.424Z,9.30
2019-02-10T02:39:29.529Z,9.30
2019-02-10T02:41:59.966Z,9.30
2019-02-10T02:44:30.464Z,9.30
2019-02-10T02:47:00.495Z,9.30
2019-02-10T02:49:30.678Z,9.30
2019-02-10T02:52:00.699Z,9.30
2019-02-10T02:54:31.845Z,9.30
2019-02-10T02:57:01.877Z,9.30
2019-02-10T02:59:32.270Z,9.30
2019-02-10T03:02:02.632Z,9.30
2019-02-10T03:04:32.560Z,9.20
2019-02-10T03:07:02.625Z,9.20
2019-02-10T03:09:32.632Z,9.20
2019-02-10T03:12:02.628Z,9.20
2019-02-10T03:14:33.606Z,9.20
2019-02-10T03:17:03.614Z,9.20
2019-02-10T03:19:33.610Z,9.20
2019-02-10T03:22:03.632Z,9.20
2019-02-10T03:24:33.902Z,9.20
2019-02-10T03:27:04.364Z,9.20
2019-02-10T03:29:34.373Z,9.20
2019-02-10T03:32:04.759Z,9.20
2019-02-10T03:34:35.165Z,9.20
2019-02-10T03:37:05.186Z,9.10
2019-02-10T03:39:35.180Z,9.10
2019-02-10T03:42:05.208Z,9.20
2019-02-10T03:44:35.279Z,9.10
2019-02-10T03:47:05.284Z,9.10
2019-02-10T03:49:35.629Z,9.10
2019-02-10T03:52:05.635Z,9.10
2019-02-10T03:54:35.625Z,9.10
2019-02-10T03:57:06.072Z,9.10
2019-02-10T03:59:37.711Z,9.10
2019-02-10T04:02:07.707Z,9.10
2019-02-10T04:04:37.728Z,9.10
2019-02-10T04:07:07.700Z,9.10
2019-02-10T04:09:37.747Z,9.10
2019-02-10T04:12:07.816Z,9.10
2019-02-10T04:14:37.858Z,9.10
2019-02-10T04:17:07.878Z,9.10
2019-02-10T04:19:37.914Z,9.10
2019-02-10T04:22:07.898Z,9.10
2019-02-10T04:24:38.297Z,9.10
2019-02-10T04:27:08.362Z,9.10
2019-02-10T04:29:38.397Z,9.10
2019-02-10T04:32:08.373Z,9.10
2019-02-10T04:34:38.386Z,9.10
2019-02-10T04:37:08.384Z,9.10
2019-02-10T04:39:38.391Z,9.10
2019-02-10T04:42:08.402Z,9.00
2019-02-10T04:44:38.439Z,9.00
2019-02-10T04:47:08.816Z,9.00
2019-02-10T04:49:38.828Z,9.00
2019-02-10T04:52:08.833Z,9.00
2019-02-10T04:54:38.849Z,9.00
2019-02-10T04:57:08.871Z,9.00
2019-02-10T04:59:38.877Z,9.00
2019-02-10T05:02:08.926Z,9.00
2019-02-10T05:04:40.484Z,9.00
2019-02-10T05:07:10.789Z,9.00
2019-02-10T05:09:40.832Z,9.00
2019-02-10T05:12:10.809Z,9.00
2019-02-10T05:14:40.808Z,9.00
2019-02-10T05:17:11.077Z,9.00
2019-02-10T05:19:41.103Z,9.00
2019-02-10T05:22:11.503Z,9.00
2019-02-10T05:24:41.535Z,9.00
2019-02-10T05:27:11.517Z,9.00
2019-02-10T05:29:41.527Z,8.90
2019-02-10T05:32:11.869Z,8.90
2019-02-10T05:34:41.909Z,8.90
2019-02-10T05:37:11.910Z,8.90
2019-02-10T05:39:41.916Z,8.90
2019-02-10T05:42:11.883Z,8.90
2019-02-10T05:44:42.203Z,8.90
2019-02-10T05:47:12.174Z,8.90
2019-02-10T05:49:42.175Z,8.90
2019-02-10T05:52:12.182Z,8.90
2019-02-10T05:54:42.193Z,8.90
2019-02-10T05:57:12.494Z,8.90
2019-02-10T05:59:42.507Z,8.90
2019-02-10T06:02:23.532Z,8.90
2019-02-10T06:04:53.553Z,8.90
2019-02-10T06:07:23.550Z,8.90
2019-02-10T06:09:53.551Z,8.90
2019-02-10T06:12:23.552Z,8.90
2019-02-10T06:14:53.559Z,8.90
2019-02-10T06:17:23.574Z,8.90
2019-02-10T06:19:53.604Z,8.90
2019-02-10T06:22:23.608Z,8.90
2019-02-10T06:24:53.617Z,8.90
2019-02-10T06:27:23.608Z,8.90
2019-02-10T06:29:54.670Z,8.80
2019-02-10T06:32:26.442Z,8.80
2019-02-10T06:34:56.447Z,8.80
2019-02-10T06:37:26.438Z,8.80
2019-02-10T06:39:56.372Z,8.80
2019-02-10T06:42:26.367Z,8.80
2019-02-10T06:44:56.730Z,8.80
2019-02-10T06:47:26.747Z,8.80
2019-02-10T06:49:57.064Z,8.80
2019-02-10T06:52:27.082Z,8.80
2019-02-10T06:54:57.399Z,8.80
2019-02-10T06:57:27.756Z,8.80
2019-02-10T07:00:15.642Z,8.80
2019-02-10T07:03:24.982Z,8.80
2019-02-10T07:05:55.042Z,8.80
2019-02-10T07:08:30.425Z,8.80
2019-02-10T07:10:56.731Z,8.80
2019-02-10T07:13:38.936Z,8.80
2019-02-10T07:16:51.635Z,8.80
2019-02-10T07:19:57.962Z,8.80
2019-02-10T07:23:21.777Z,8.80
2019-02-10T07:25:56.286Z,8.80
2019-02-10T07:28:57.871Z,8.70
2019-02-10T07:31:58.664Z,8.70
2019-02-10T07:35:09.154Z,8.80
2019-02-10T07:38:07.508Z,8.80
2019-02-10T07:41:45.630Z,8.80
2019-02-10T07:44:40.506Z,8.80
2019-02-10T07:47:22.135Z,8.80
2019-02-10T07:50:16.237Z,8.80
2019-02-10T07:53:07.506Z,8.80
2019-02-10T07:56:02.431Z,8.90
2019-02-10T07:58:58.907Z,8.90
2019-02-10T08:01:49.077Z,9.00
2019-02-10T08:04:54.989Z,9.00
2019-02-10T08:07:52.989Z,9.00
2019-02-10T08:10:59.131Z,9.10
2019-02-10T08:13:40.523Z,9.10
2019-02-10T08:16:47.588Z,9.10
2019-02-10T08:19:52.022Z,9.00
2019-02-10T08:22:53.737Z,9.00
2019-02-10T08:25:44.760Z,9.00
2019-02-10T08:28:47.345Z,9.00
2019-02-10T08:32:06.185Z,9.10
2019-02-10T08:35:15.735Z,9.10
2019-02-10T08:38:26.562Z,9.10
2019-02-10T08:41:38.439Z,9.10
2019-02-10T08:44:46.881Z,9.10
2019-02-10T08:47:46.075Z,9.10
2019-02-10T08:50:31.143Z,9.10
2019-02-10T08:53:17.978Z,9.10
2019-02-10T08:55:48.582Z,9.20
2019-02-10T08:58:19.395Z,9.20
2019-02-10T09:00:49.418Z,9.20
2019-02-10T09:03:19.947Z,9.20
2019-02-10T09:05:50.705Z,9.30
2019-02-10T09:08:20.777Z,9.30
2019-02-10T09:10:50.803Z,9.30
2019-02-10T09:13:21.149Z,9.30
2019-02-10T09:15:51.163Z,9.30
2019-02-10T09:18:21.235Z,9.40
2019-02-10T09:20:51.319Z,9.40
2019-02-10T09:23:21.378Z,9.40
2019-02-10T09:25:51.393Z,9.40
2019-02-10T09:28:21.435Z,9.50
2019-02-10T09:30:51.541Z,9.50
2019-02-10T09:33:21.954Z,9.50
2019-02-10T09:35:52.177Z,9.50
2019-02-10T09:38:22.235Z,9.50
2019-02-10T09:40:52.324Z,9.50
2019-02-10T09:43:22.534Z,9.60
2019-02-10T09:45:52.530Z,9.60
2019-02-10T09:48:22.523Z,9.60
2019-02-10T09:50:53.858Z,9.60
2019-02-10T09:53:24.335Z,9.60
2019-02-10T09:55:55.013Z,9.70
2019-02-10T09:58:25.735Z,9.70
2019-02-10T10:00:55.883Z,9.70
2019-02-10T10:03:26.251Z,9.80
2019-02-10T10:05:56.310Z,9.80
2019-02-10T10:08:26.379Z,9.80
2019-02-10T10:10:56.409Z,9.80
2019-02-10T10:13:26.427Z,9.80
2019-02-10T10:15:56.803Z,9.80
2019-02-10T10:18:26.989Z,9.90
2019-02-10T10:20:57.006Z,9.80
2019-02-10T10:23:27.030Z,9.80
2019-02-10T10:25:56.998Z,9.80
2019-02-10T10:28:27.083Z,9.90
2019-02-10T10:30:57.162Z,9.90
2019-02-10T10:33:27.204Z,9.90
2019-02-10T10:35:57.200Z,9.90
2019-02-10T10:38:27.214Z,9.90
2019-02-10T10:40:57.216Z,9.90
2019-02-10T10:43:27.215Z,10.00
2019-02-10T10:45:57.231Z,10.00
2019-02-10T10:48:27.510Z,10.10
2019-02-10T10:50:57.840Z,10.10
2019-02-10T10:53:27.959Z,10.10
2019-02-10T10:55:58.596Z,10.10
2019-02-10T10:58:28.663Z,10.20
2019-02-10T11:00:58.669Z,10.20
2019-02-10T11:03:28.889Z,10.30
2019-02-10T11:05:58.892Z,10.30
2019-02-10T11:08:28.901Z,10.40
2019-02-10T11:10:58.996Z,10.40
2019-02-10T11:13:29.396Z,10.50
2019-02-10T11:15:59.852Z,10.50
2019-02-10T11:18:29.859Z,10.50
2019-02-10T11:21:00.051Z,10.50
2019-02-10T11:23:30.048Z,10.60
2019-02-10T11:26:00.259Z,10.60
2019-02-10T11:28:30.258Z,10.70
2019-02-10T11:31:00.296Z,10.70
2019-02-10T11:33:30.991Z,10.80
2019-02-10T11:36:01.006Z,10.80
2019-02-10T11:38:30.996Z,10.90
2019-02-10T11:41:01.444Z,10.90
2019-02-10T11:43:31.427Z,11.00
2019-02-10T11:46:01.446Z,11.00
2019-02-10T11:48:31.983Z,11.10
2019-02-10T11:51:02.035Z,11.10
2019-02-10T11:53:32.024Z,11.20
2019-02-10T11:56:02.363Z,11.20
2019-02-10T11:58:32.807Z,11.20
2019-02-10T12:01:03.355Z,11.20
2019-02-10T12:03:33.354Z,11.30
2019-02-10T12:06:03.376Z,11.30
2019-02-10T12:08:35.795Z,11.30
2019-02-10T12:11:05.105Z,11.40
2019-02-10T12:13:35.168Z,11.30
2019-02-10T12:16:05.878Z,11.30
2019-02-10T12:18:35.875Z,11.30
2019-02-10T12:21:05.881Z,11.30
2019-02-10T12:23:36.233Z,11.30
2019-02-10T12:26:06.251Z,11.30
2019-02-10T12:28:36.259Z,11.40
2019-02-10T12:31:06.255Z,11.40
2019-02-10T12:33:36.254Z,11.50
2019-02-10T12:36:06.632Z,11.40
2019-02-10T12:38:37.805Z,11.50
2019-02-10T12:41:08.198Z,11.50
2019-02-10T12:43:38.689Z,11.60
2019-02-10T12:46:09.017Z,11.60
2019-02-10T12:52:14.399Z,11.60
2019-02-10T12:54:44.386Z,11.60
2019-02-10T12:57:26.737Z,11.60
2019-02-10T12:59:56.781Z,11.60
2019-02-10T13:02:27.108Z,11.70
2019-02-10T13:04:57.192Z,11.70
2019-02-10T13:07:27.615Z,11.70
2019-02-10T13:09:57.621Z,11.80
2019-02-10T13:12:27.660Z,11.90
2019-02-10T13:14:57.701Z,11.90
2019-02-10T13:17:27.766Z,11.90
2019-02-10T13:19:58.482Z,12.00
2019-02-10T13:22:28.850Z,12.00
2019-02-10T13:24:58.934Z,12.10
2019-02-10T13:27:28.937Z,12.10
2019-02-10T13:29:59.057Z,12.10
2019-02-10T13:32:29.076Z,12.10
2019-02-10T13:34:59.486Z,12.10
2019-02-10T13:37:29.843Z,12.20
2019-02-10T13:40:00.272Z,12.10
2019-02-10T13:42:31.010Z,12.20
2019-02-10T13:45:01.041Z,12.20
2019-02-10T13:47:31.038Z,12.30
2019-02-10T13:50:01.514Z,12.30
2019-02-10T13:52:47.266Z,12.30
2019-02-10T13:55:17.295Z,12.30
2019-02-10T13:57:47.286Z,12.40
2019-02-10T14:00:18.839Z,12.40
2019-02-10T14:02:48.828Z,12.40
2019-02-10T14:05:18.915Z,12.50
2019-02-10T14:07:50.703Z,12.50
2019-02-10T14:10:25.576Z,12.50
2019-02-10T14:12:52.355Z,12.50
2019-02-10T14:15:22.457Z,12.50
2019-02-10T14:17:52.557Z,12.50
2019-02-10T14:20:22.610Z,12.50
2019-02-10T14:22:52.973Z,12.60
2019-02-10T14:25:23.005Z,12.60
2019-02-10T14:27:53.041Z,12.50
2019-02-10T14:30:23.362Z,12.50
2019-02-10T14:32:53.698Z,12.50
2019-02-10T14:35:23.759Z,12.50
2019-02-10T14:37:53.774Z,12.60
2019-02-10T14:40:23.882Z,12.60
2019-02-10T14:42:53.927Z,12.60
2019-02-10T14:45:24.228Z,12.60
2019-02-10T14:47:54.244Z,12.60
2019-02-10T14:50:24.567Z,12.60
2019-02-10T14:52:54.605Z,12.60
2019-02-10T14:55:24.703Z,12.60
2019-02-10T14:57:54.751Z,12.50
2019-02-10T15:00:24.864Z,12.50
2019-02-10T15:02:54.891Z,12.50
2019-02-10T15:05:25.268Z,12.50
2019-02-10T15:07:55.672Z,12.50
2019-02-10T15:10:25.686Z,12.50
2019-02-10T15:12:56.509Z,12.50
2019-02-10T15:15:26.592Z,12.50
2019-02-10T15:17:56.588Z,12.50
2019-02-10T15:20:26.881Z,12.50
2019-02-10T15:22:56.976Z,12.40
2019-02-10T15:25:28.169Z,12.40
2019-02-10T15:27:58.381Z,12.40
2019-02-10T15:30:28.403Z,12.40
2019-02-10T15:32:58.887Z,12.40
2019-02-10T15:35:29.166Z,12.40
2019-02-10T15:37:59.530Z,12.40
2019-02-10T15:40:29.585Z,12.40
2019-02-10T15:43:00.072Z,12.40
2019-02-10T15:45:30.126Z,12.40
2019-02-10T15:48:00.151Z,12.40
2019-02-10T15:50:30.434Z,12.40
2019-02-10T15:53:00.567Z,12.40
2019-02-10T15:55:30.690Z,12.50
2019-02-10T15:58:01.086Z,12.50
2019-02-10T16:00:31.263Z,12.50
2019-02-10T16:03:01.254Z,12.40
2019-02-10T16:05:31.276Z,12.40
2019-02-10T16:08:01.674Z,12.40
2019-02-10T16:10:32.207Z,12.40
2019-02-10T16:13:02.243Z,12.40
2019-02-10T16:15:32.263Z,12.40
2019-02-10T16:18:02.687Z,12.50
2019-02-10T16:20:32.993Z,12.40
2019-02-10T16:23:02.987Z,12.50
2019-02-10T16:25:33.142Z,12.50
2019-02-10T16:28:03.156Z,12.40
2019-02-10T16:30:33.335Z,12.50
2019-02-10T16:33:03.405Z,12.50
2019-02-10T16:35:33.841Z,12.50
2019-02-10T16:38:04.870Z,12.50
2019-02-10T16:40:34.973Z,12.40
2019-02-10T16:43:05.014Z,12.40
2019-02-10T16:45:35.010Z,12.40
2019-02-10T16:48:05.117Z,12.40
2019-02-10T16:50:35.571Z,12.40
2019-02-10T16:53:05.580Z,12.50
2019-02-10T16:55:35.684Z,12.50
2019-02-10T16:58:05.760Z,12.50
2019-02-10T17:00:35.816Z,12.50
2019-02-10T17:03:07.702Z,12.50
2019-02-10T17:05:37.554Z,12.50
2019-02-10T17:08:07.593Z,12.50
2019-02-10T17:10:37.615Z,12.50
2019-02-10T17:13:07.765Z,12.50
2019-02-10T17:15:37.778Z,12.50
2019-02-10T17:18:08.183Z,12.50
2019-02-10T17:20:38.225Z,12.40
2019-02-10T17:23:08.321Z,12.50
2019-02-10T17:25:38.803Z,12.40
2019-02-10T17:28:08.980Z,12.40
2019-02-10T17:30:39.206Z,12.40
2019-02-10T17:33:09.669Z,12.40
2019-02-10T17:35:39.697Z,12.30
2019-02-10T17:38:09.740Z,12.20
2019-02-10T17:40:54.504Z,12.20
2019-02-10T17:43:28.157Z,12.20
2019-02-10T17:45:56.266Z,12.30
2019-02-10T17:48:26.284Z,12.20
2019-02-10T17:50:56.711Z,12.20
2019-02-10T17:53:27.154Z,12.20
2019-02-10T17:55:57.908Z,12.10
2019-02-10T17:58:27.982Z,12.00
2019-02-10T18:00:58.371Z,11.90
2019-02-10T18:03:28.885Z,11.80
2019-02-10T18:05:58.894Z,11.60
2019-02-10T18:08:29.208Z,11.40
2019-02-10T18:10:59.285Z,11.20
2019-02-10T18:13:29.291Z,11.10
2019-02-10T18:16:31.263Z,11.00
2019-02-10T18:19:17.607Z,11.00
2019-02-10T18:22:09.438Z,10.80
2019-02-10T18:25:06.253Z,10.70
2019-02-10T18:27:43.231Z,10.60
2019-02-10T18:30:32.651Z,10.60
2019-02-10T18:33:21.844Z,10.50
2019-02-10T18:36:16.867Z,10.30
2019-02-10T18:39:01.833Z,10.40
2019-02-10T18:41:52.944Z,10.30
2019-02-10T18:44:39.887Z,10.10
2019-02-10T18:47:35.199Z,10.00
2019-02-10T18:50:25.565Z,9.80
2019-02-10T18:53:14.932Z,9.70
2019-02-10T18:56:04.222Z,9.70
2019-02-10T18:59:05.589Z,9.70
2019-02-10T19:01:45.407Z,9.70
2019-02-10T19:04:32.561Z,9.50
2019-02-10T19:07:24.339Z,9.50
2019-02-10T19:10:19.884Z,9.60
2019-02-10T19:13:12.001Z,9.60
2019-02-10T19:15:54.327Z,9.40
2019-02-10T19:18:49.520Z,9.30
2019-02-10T19:21:41.752Z,9.30
2019-02-10T19:24:29.807Z,9.30
2019-02-10T19:27:28.457Z,9.30
2019-02-10T19:30:15.148Z,9.40
2019-02-10T19:32:50.240Z,9.50
2019-02-10T19:35:42.310Z,9.60
2019-02-10T19:38:34.281Z,9.60
2019-02-10T19:41:22.104Z,9.70
2019-02-10T19:44:18.579Z,9.60
2019-02-10T19:47:00.452Z,9.50
2019-02-10T19:49:56.829Z,9.40
2019-02-10T19:52:55.597Z,9.20
2019-02-10T19:55:31.443Z,9.20
2019-02-10T19:58:20.504Z,9.10
2019-02-10T20:01:09.214Z,9.10
2019-02-10T20:03:53.178Z,9.20
2019-02-10T20:06:30.988Z,9.20
2019-02-10T20:09:20.779Z,9.10
2019-02-10T20:12:10.577Z,9.10
2019-02-10T20:14:59.636Z,9.10
2019-02-10T20:18:07.956Z,9.20
2019-02-10T20:20:46.755Z,9.20
2019-02-10T20:23:23.252Z,9.30
2019-02-10T20:26:10.901Z,9.30
2019-02-10T20:28:54.209Z,9.20
2019-02-10T20:31:45.547Z,9.10
2019-02-10T20:34:32.753Z,9.20
2019-02-10T20:37:20.742Z,9.10
2019-02-10T20:40:00.117Z,9.10
2019-02-10T20:42:40.559Z,9.20
2019-02-10T20:45:24.510Z,9.10
2019-02-10T20:48:12.798Z,9.10
2019-02-10T20:51:06.315Z,9.20
2019-02-10T20:53:48.914Z,9.00
2019-02-10T20:56:24.054Z,8.90
2019-02-10T20:58:59.609Z,8.90
2019-02-10T21:01:54.738Z,8.90
2019-02-10T21:04:44.179Z,8.90
2019-02-10T21:07:23.927Z,8.80
2019-02-10T21:10:13.068Z,8.80
2019-02-10T21:12:58.863Z,8.80
2019-02-10T21:15:45.375Z,8.70
2019-02-10T21:18:27.582Z,8.60
2019-02-10T21:21:22.679Z,8.60
2019-02-10T21:24:01.826Z,8.60
2019-02-10T21:26:56.740Z,8.70
2019-02-10T21:30:03.829Z,8.60
2019-02-10T21:32:51.713Z,8.60
2019-02-10T21:35:37.310Z,8.60
2019-02-10T21:38:24.743Z,8.60
2019-02-10T21:41:05.112Z,8.60
2019-02-10T21:43:49.888Z,8.60
2019-02-10T21:46:29.494Z,8.70
2019-02-10T21:49:06.257Z,8.80
2019-02-10T21:51:36.696Z,8.70
2019-02-10T21:54:06.993Z,8.80
2019-02-10T21:56:37.133Z,8.80
2019-02-10T21:59:07.481Z,8.70
2019-02-10T22:01:38.311Z,8.70
2019-02-10T22:04:08.299Z,8.70
2019-02-10T22:06:38.359Z,8.70
2019-02-10T22:09:08.445Z,8.80
2019-02-10T22:11:38.559Z,8.80
2019-02-10T22:14:08.579Z,8.70
2019-02-10T22:16:38.569Z,8.70
2019-02-10T22:19:08.596Z,8.70
2019-02-10T22:21:38.582Z,8.60
2019-02-10T22:24:08.944Z,8.60
2019-02-10T22:26:39.000Z,8.50
2019-02-10T22:29:09.000Z,8.40
2019-02-10T22:31:39.023Z,8.20
2019-02-10T22:34:09.679Z,8.00
2019-02-10T22:36:39.675Z,8.00
2019-02-10T22:39:09.679Z,8.00
2019-02-10T22:41:40.004Z,8.00
2019-02-10T22:44:09.998Z,8.00
2019-02-10T22:46:40.347Z,7.90
2019-02-10T22:49:10.316Z,7.90
2019-02-10T22:51:40.313Z,7.90
2019-02-10T22:54:11.007Z,8.00
2019-02-10T22:56:41.027Z,8.00
2019-02-10T22:59:10.998Z,7.90
2019-02-10T23:01:41.027Z,7.90
2019-02-10T23:04:11.048Z,7.80
2019-02-10T23:06:41.399Z,7.80
2019-02-10T23:09:20.152Z,7.80
2019-02-10T23:11:50.172Z,7.80
2019-02-10T23:14:20.249Z,7.80
2019-02-10T23:16:50.268Z,7.80
2019-02-10T23:19:20.300Z,7.90
2019-02-10T23:21:50.327Z,8.00
2019-02-10T23:24:20.336Z,8.00
2019-02-10T23:26:50.350Z,7.90
2019-02-10T23:29:20.212Z,7.90
2019-02-10T23:31:50.260Z,7.90
2019-02-10T23:34:20.636Z,7.90
2019-02-10T23:36:50.659Z,7.90
2019-02-10T23:39:20.654Z,7.90
2019-02-10T23:41:51.356Z,8.00
2019-02-10T23:44:21.340Z,8.00
2019-02-10T23:46:51.354Z,8.00
2019-02-10T23:49:21.666Z,8.10
2019-02-10T23:51:51.695Z,8.10
2019-02-10T23:54:21.776Z,8.10
2019-02-10T23:56:51.774Z,8.10
2019-02-10T23:59:21.940Z,8.10
